createdAt,value
2022-12-03T00:01:41.793Z,2.90
2022-12-03T00:04:13.023Z,2.96
2022-12-03T00:06:42.757Z,3.00
2022-12-03T00:09:12.581Z,3.10
2022-12-03T00:11:42.317Z,3.20
2022-12-03T00:14:12.214Z,3.07
2022-12-03T00:16:41.940Z,3.07
2022-12-03T00:19:11.685Z,3.08
2022-12-03T00:21:41.449Z,3.19
2022-12-03T00:24:11.777Z,3.11
2022-12-03T00:26:41.608Z,3.16
2022-12-03T00:29:11.714Z,3.14
2022-12-03T00:31:43.165Z,3.17
2022-12-03T00:34:13.246Z,3.14
2022-12-03T00:36:42.995Z,3.08
2022-12-03T00:39:12.743Z,3.15
2022-12-03T00:41:42.498Z,3.12
2022-12-03T00:44:12.272Z,2.81
2022-12-03T00:46:42.188Z,3.09
2022-12-03T00:49:12.059Z,3.06
2022-12-03T00:51:41.605Z,3.10
2022-12-03T00:54:12.071Z,3.02
2022-12-03T00:56:41.809Z,3.10
2022-12-03T00:59:11.876Z,3.12
2022-12-03T01:01:41.715Z,2.98
2022-12-03T01:04:11.677Z,3.12
2022-12-03T01:06:41.211Z,3.04
2022-12-03T01:09:10.945Z,2.95
2022-12-03T01:11:41.300Z,2.98
2022-12-03T01:14:14.000Z,2.90
2022-12-03T01:16:44.274Z,2.90
2022-12-03T01:19:15.919Z,2.93
2022-12-03T01:21:48.394Z,2.93
2022-12-03T01:24:20.470Z,3.12
2022-12-03T01:26:50.167Z,3.05
2022-12-03T01:29:19.931Z,3.10
2022-12-03T01:32:07.390Z,3.15
2022-12-03T01:34:37.134Z,3.25
2022-12-03T01:37:06.954Z,3.17
2022-12-03T01:39:36.798Z,3.11
2022-12-03T01:42:10.131Z,3.10
2022-12-03T01:44:41.706Z,3.24
2022-12-03T01:47:18.034Z,3.24
2022-12-03T01:49:50.843Z,2.99
2022-12-03T01:52:23.623Z,3.00
2022-12-03T01:55:02.058Z,3.15
2022-12-03T01:57:37.443Z,2.94
2022-12-03T02:00:15.534Z,3.15
2022-12-03T02:02:46.158Z,3.00
2022-12-03T02:05:33.156Z,2.92
2022-12-03T02:08:03.213Z,3.02
2022-12-03T02:10:37.530Z,3.35
2022-12-03T02:13:09.772Z,3.04
2022-12-03T02:15:41.315Z,3.18
2022-12-03T02:18:11.939Z,3.00
2022-12-03T02:20:50.362Z,2.91
2022-12-03T02:23:23.224Z,2.91
2022-12-03T02:25:53.470Z,3.18
2022-12-03T02:28:23.085Z,3.02
2022-12-03T02:30:52.915Z,3.11
2022-12-03T02:33:22.688Z,3.21
2022-12-03T02:35:52.570Z,3.10
2022-12-03T02:38:25.979Z,3.07
2022-12-03T02:40:59.032Z,3.19
2022-12-03T02:43:28.669Z,3.15
2022-12-03T02:46:01.132Z,2.88
2022-12-03T02:48:34.037Z,3.10
2022-12-03T02:54:38.130Z,3.04
2022-12-03T02:57:08.209Z,3.38
2022-12-03T02:59:38.101Z,3.48
2022-12-03T03:02:10.170Z,3.35
2022-12-03T03:04:40.884Z,3.32
2022-12-03T03:07:11.348Z,3.31
2022-12-03T03:09:41.676Z,3.29
2022-12-03T03:12:12.456Z,3.28
2022-12-03T03:14:42.331Z,3.41
2022-12-03T03:17:12.340Z,3.24
2022-12-03T03:19:42.886Z,3.16
2022-12-03T03:22:13.129Z,3.09
2022-12-03T03:24:42.939Z,3.05
2022-12-03T03:27:12.765Z,3.03
2022-12-03T03:29:42.509Z,3.12
2022-12-03T03:32:13.089Z,3.07
2022-12-03T03:34:42.955Z,3.05
2022-12-03T03:37:12.976Z,2.97
2022-12-03T03:39:42.718Z,3.05
2022-12-03T03:42:12.848Z,3.05
2022-12-03T03:44:42.817Z,3.11
2022-12-03T03:47:12.924Z,2.88
2022-12-03T03:49:43.216Z,2.99
2022-12-03T03:52:13.305Z,3.30
2022-12-03T03:54:43.201Z,3.06
2022-12-03T03:57:13.283Z,3.03
2022-12-03T03:59:43.170Z,3.23
2022-12-03T04:02:24.655Z,2.94
2022-12-03T04:04:55.382Z,2.89
2022-12-03T04:07:25.374Z,2.92
2022-12-03T04:09:55.172Z,2.98
2022-12-03T04:12:42.523Z,2.85
2022-12-03T04:15:11.975Z,2.75
2022-12-03T04:17:41.707Z,2.86
2022-12-03T04:20:13.489Z,2.99
2022-12-03T04:22:43.541Z,2.99
2022-12-03T04:25:30.621Z,3.12
2022-12-03T04:28:19.830Z,2.72
2022-12-03T04:30:49.947Z,2.89
2022-12-03T04:33:37.749Z,2.87
2022-12-03T04:36:10.225Z,2.79
2022-12-03T04:38:39.981Z,2.73
2022-12-03T04:41:10.049Z,2.73
2022-12-03T04:43:41.512Z,2.78
2022-12-03T04:46:11.749Z,2.80
2022-12-03T04:48:41.766Z,2.80
2022-12-03T04:51:11.817Z,2.70
2022-12-03T04:53:46.032Z,2.62
2022-12-03T04:56:12.401Z,2.85
2022-12-03T04:58:42.220Z,2.79
2022-12-03T05:01:12.106Z,2.95
2022-12-03T05:03:41.851Z,2.84
2022-12-03T05:06:11.742Z,2.87
2022-12-03T05:08:41.499Z,2.90
2022-12-03T05:11:12.875Z,3.00
2022-12-03T05:13:43.271Z,2.95
2022-12-03T05:16:13.213Z,2.92
2022-12-03T05:18:42.948Z,3.14
2022-12-03T05:21:13.075Z,3.26
2022-12-03T05:23:43.911Z,2.97
2022-12-03T05:26:13.432Z,3.19
2022-12-03T05:28:43.184Z,3.01
2022-12-03T05:31:13.138Z,2.95
2022-12-03T05:33:44.509Z,3.04
2022-12-03T05:36:14.503Z,2.83
2022-12-03T05:38:44.333Z,2.85
2022-12-03T05:41:31.579Z,3.10
2022-12-03T05:44:01.670Z,2.85
2022-12-03T05:46:32.523Z,2.85
2022-12-03T05:49:02.552Z,2.93
2022-12-03T05:51:32.371Z,3.06
2022-12-03T05:54:02.120Z,3.08
2022-12-03T05:56:31.879Z,3.02
2022-12-03T05:59:01.681Z,2.98
2022-12-03T06:01:31.394Z,2.87
2022-12-03T06:04:01.267Z,2.83
2022-12-03T06:06:31.118Z,2.82
2022-12-03T06:09:01.039Z,2.94
2022-12-03T06:11:32.562Z,3.06
2022-12-03T06:14:02.902Z,2.69
2022-12-03T06:16:32.867Z,2.75
2022-12-03T06:19:02.652Z,2.76
2022-12-03T06:21:32.412Z,2.62
2022-12-03T06:24:02.197Z,2.60
2022-12-03T06:26:31.934Z,2.75
2022-12-03T06:29:01.688Z,2.84
2022-12-03T06:31:31.500Z,2.58
2022-12-03T06:34:01.214Z,2.58
2022-12-03T06:36:31.129Z,2.62
2022-12-03T06:39:00.864Z,2.75
2022-12-03T06:41:30.624Z,2.87
2022-12-03T06:44:00.924Z,2.63
2022-12-03T06:46:30.879Z,2.74
2022-12-03T06:49:01.054Z,2.70
2022-12-03T06:51:30.511Z,2.77
2022-12-03T06:54:00.264Z,2.63
2022-12-03T06:56:35.850Z,2.63
2022-12-03T06:59:01.930Z,2.67
2022-12-03T07:01:31.726Z,2.62
2022-12-03T07:04:01.182Z,2.80
2022-12-03T07:06:31.035Z,2.75
2022-12-03T07:09:00.876Z,2.83
2022-12-03T07:11:33.306Z,2.65
2022-12-03T07:14:05.773Z,2.67
2022-12-03T07:16:36.867Z,2.64
2022-12-03T07:19:07.643Z,2.72
2022-12-03T07:21:37.543Z,2.95
2022-12-03T07:24:09.829Z,2.75
2022-12-03T07:26:39.587Z,2.82
2022-12-03T07:29:09.326Z,2.77
2022-12-03T07:31:39.148Z,2.91
2022-12-03T07:34:11.114Z,2.57
2022-12-03T07:36:40.924Z,2.54
2022-12-03T07:39:10.767Z,2.73
2022-12-03T07:41:40.639Z,2.80
2022-12-03T07:44:14.690Z,2.95
2022-12-03T07:46:44.702Z,2.81
2022-12-03T07:49:14.812Z,2.82
2022-12-03T07:51:46.260Z,2.94
2022-12-03T07:54:16.052Z,2.62
2022-12-03T07:56:45.798Z,3.09
2022-12-03T07:59:16.338Z,3.09
2022-12-03T08:01:46.703Z,2.60
2022-12-03T08:04:17.884Z,2.53
2022-12-03T08:06:48.127Z,2.53
2022-12-03T08:09:17.971Z,2.69
2022-12-03T08:11:49.905Z,2.79
2022-12-03T08:14:21.291Z,2.84
2022-12-03T08:16:51.569Z,2.99
2022-12-03T08:19:22.798Z,2.67
2022-12-03T08:21:57.978Z,2.47
2022-12-03T08:24:24.141Z,2.48
2022-12-03T08:26:53.924Z,2.54
2022-12-03T08:29:23.688Z,2.44
2022-12-03T08:31:55.586Z,2.43
2022-12-03T08:34:28.203Z,2.80
2022-12-03T08:37:01.010Z,2.80
2022-12-03T08:39:33.819Z,2.72
2022-12-03T08:42:29.826Z,2.73
2022-12-03T08:45:02.701Z,2.62
2022-12-03T08:47:32.772Z,2.59
2022-12-03T08:50:05.563Z,2.59
2022-12-03T08:52:36.073Z,2.76
2022-12-03T08:55:30.012Z,2.50
2022-12-03T08:58:00.480Z,2.67
2022-12-03T09:00:30.424Z,2.64
2022-12-03T09:03:01.753Z,2.56
2022-12-03T09:05:35.117Z,2.53
2022-12-03T09:08:06.638Z,2.79
2022-12-03T09:10:36.374Z,2.63
2022-12-03T09:13:06.196Z,2.34
2022-12-03T09:15:35.967Z,2.53
2022-12-03T09:18:06.759Z,2.50
2022-12-03T09:20:36.512Z,2.55
2022-12-03T09:23:06.265Z,2.52
2022-12-03T09:25:36.297Z,2.59
2022-12-03T09:28:08.249Z,2.73
2022-12-03T09:30:38.039Z,2.58
2022-12-03T09:33:07.884Z,2.34
2022-12-03T09:35:37.724Z,2.41
2022-12-03T09:38:08.451Z,2.43
2022-12-03T09:40:39.064Z,2.53
2022-12-03T09:43:09.179Z,2.49
2022-12-03T09:45:39.314Z,2.50
2022-12-03T09:48:12.461Z,2.50
2022-12-03T09:50:43.639Z,2.28
2022-12-03T09:53:22.226Z,2.75
2022-12-03T09:55:52.295Z,2.60
2022-12-03T09:58:23.065Z,2.75
2022-12-03T10:00:53.577Z,2.65
2022-12-03T10:03:29.885Z,2.74
2022-12-03T10:05:58.672Z,2.66
2022-12-03T10:08:32.999Z,2.37
2022-12-03T10:11:02.812Z,2.76
2022-12-03T10:13:35.447Z,2.64
2022-12-03T10:16:08.139Z,2.60
2022-12-03T10:18:41.749Z,2.64
2022-12-03T10:21:20.285Z,2.49
2022-12-03T10:23:55.106Z,2.56
2022-12-03T10:26:25.026Z,2.44
2022-12-03T10:28:56.498Z,2.59
2022-12-03T10:31:29.361Z,2.55
2022-12-03T10:34:02.733Z,2.41
2022-12-03T10:36:33.176Z,2.40
2022-12-03T10:39:17.153Z,2.38
2022-12-03T10:41:47.558Z,2.51
2022-12-03T10:44:22.708Z,2.55
2022-12-03T10:47:11.375Z,2.59
2022-12-03T10:49:42.709Z,2.67
2022-12-03T10:52:22.584Z,2.80
2022-12-03T10:54:51.064Z,2.80
2022-12-03T10:57:21.329Z,2.64
2022-12-03T10:59:51.400Z,3.10
2022-12-03T11:02:23.478Z,2.99
2022-12-03T11:04:54.199Z,3.07
2022-12-03T11:07:26.061Z,3.27
2022-12-03T11:09:55.809Z,3.19
2022-12-03T11:12:28.270Z,3.23
2022-12-03T11:15:01.269Z,2.80
2022-12-03T11:17:42.686Z,2.60
2022-12-03T11:20:28.106Z,2.75
2022-12-03T11:22:59.472Z,2.92
2022-12-03T11:25:32.349Z,3.07
2022-12-03T11:28:17.314Z,3.07
2022-12-03T11:30:54.457Z,2.89
2022-12-03T11:33:26.607Z,2.60
2022-12-03T11:36:08.488Z,2.96
2022-12-03T11:38:53.372Z,2.84
2022-12-03T11:41:30.563Z,2.68
2022-12-03T11:44:03.908Z,2.65
2022-12-03T11:46:43.042Z,2.63
2022-12-03T11:49:35.718Z,2.98
2022-12-03T11:52:25.725Z,2.88
2022-12-03T11:55:04.606Z,2.82
2022-12-03T11:57:37.701Z,2.89
2022-12-03T12:00:11.612Z,2.60
2022-12-03T12:02:44.738Z,2.86
2022-12-03T12:05:35.511Z,2.67
2022-12-03T12:08:08.594Z,2.49
2022-12-03T12:10:43.820Z,2.73
2022-12-03T12:13:34.902Z,2.64
2022-12-03T12:16:08.443Z,2.59
2022-12-03T12:18:54.855Z,3.03
2022-12-03T12:21:49.901Z,3.03
2022-12-03T12:24:42.529Z,2.88
2022-12-03T12:27:18.481Z,2.70
2022-12-03T12:29:56.404Z,2.81
2022-12-03T12:32:32.558Z,2.63
2022-12-03T12:35:05.048Z,2.74
2022-12-03T12:37:38.186Z,2.74
2022-12-03T12:40:15.787Z,2.92
2022-12-03T12:42:46.009Z,2.85
2022-12-03T12:45:18.793Z,2.89
2022-12-03T12:48:00.672Z,2.96
2022-12-03T12:50:33.098Z,2.92
2022-12-03T12:53:22.291Z,2.92
2022-12-03T12:56:03.094Z,2.84
2022-12-03T12:58:34.189Z,2.88
2022-12-03T13:01:07.258Z,2.75
2022-12-03T13:03:40.220Z,2.72
2022-12-03T13:06:15.553Z,2.71
2022-12-03T13:08:48.228Z,2.71
2022-12-03T13:11:36.865Z,2.71
2022-12-03T13:16:54.167Z,2.65
2022-12-03T13:19:31.900Z,2.56
2022-12-03T13:22:12.978Z,2.31
2022-12-03T13:24:47.591Z,2.54
2022-12-03T13:27:25.560Z,2.64
2022-12-03T13:30:04.281Z,2.64
2022-12-03T13:32:36.998Z,2.55
2022-12-03T13:35:27.033Z,2.39
2022-12-03T13:37:58.656Z,2.44
2022-12-03T13:40:31.294Z,2.59
2022-12-03T13:43:02.658Z,2.67
2022-12-03T13:45:40.934Z,2.67
2022-12-03T13:48:26.613Z,2.62
2022-12-03T13:50:58.487Z,2.38
2022-12-03T13:53:37.122Z,2.41
2022-12-03T13:56:24.917Z,2.41
2022-12-03T13:58:54.874Z,2.49
2022-12-03T14:01:24.721Z,2.50
2022-12-03T14:03:54.920Z,2.66
2022-12-03T14:06:26.058Z,2.50
2022-12-03T14:08:55.802Z,2.37
2022-12-03T14:11:43.208Z,2.54
2022-12-03T14:14:14.119Z,2.50
2022-12-03T14:16:43.910Z,2.33
2022-12-03T14:19:14.154Z,2.39
2022-12-03T14:21:43.980Z,2.39
2022-12-03T14:24:13.540Z,2.51
2022-12-03T14:26:43.309Z,2.48
2022-12-03T14:29:13.115Z,2.66
2022-12-03T14:31:42.959Z,2.42
2022-12-03T14:34:12.422Z,2.42
2022-12-03T14:36:42.232Z,2.47
2022-12-03T14:39:12.195Z,2.36
2022-12-03T14:41:59.582Z,2.41
2022-12-03T14:44:29.364Z,2.23
2022-12-03T14:46:59.116Z,2.37
2022-12-03T14:49:29.139Z,2.34
2022-12-03T14:52:02.112Z,2.35
2022-12-03T14:54:32.757Z,2.51
2022-12-03T14:57:02.679Z,2.55
2022-12-03T14:59:32.443Z,2.55
2022-12-03T15:02:02.072Z,2.33
2022-12-03T15:04:32.125Z,2.59
2022-12-03T15:07:02.220Z,2.16
2022-12-03T15:09:31.996Z,2.16
2022-12-03T15:12:01.847Z,2.16
2022-12-03T15:14:31.736Z,2.16
2022-12-03T15:17:01.624Z,2.30
2022-12-03T15:19:31.414Z,2.04
2022-12-03T15:22:01.167Z,2.07
2022-12-03T15:24:31.310Z,1.94
2022-12-03T15:27:01.382Z,1.90
2022-12-03T15:29:32.345Z,1.77
2022-12-03T15:32:03.091Z,1.93
2022-12-03T15:34:32.832Z,1.93
2022-12-03T15:37:02.639Z,1.82
2022-12-03T15:39:33.282Z,1.88
2022-12-03T15:42:03.332Z,2.24
2022-12-03T15:44:33.084Z,2.24
2022-12-03T15:47:02.874Z,2.20
2022-12-03T15:49:32.678Z,1.96
2022-12-03T15:52:02.782Z,2.18
2022-12-03T15:54:32.559Z,2.26
2022-12-03T15:57:02.687Z,2.24
2022-12-03T15:59:32.451Z,2.36
2022-12-03T16:02:02.329Z,2.24
2022-12-03T16:04:32.385Z,2.17
2022-12-03T16:07:02.196Z,1.98
2022-12-03T16:09:32.256Z,1.82
2022-12-03T16:12:02.298Z,1.95
2022-12-03T16:14:32.188Z,1.67
2022-12-03T16:17:02.105Z,2.12
2022-12-03T16:19:31.886Z,2.14
2022-12-03T16:22:03.178Z,1.94
2022-12-03T16:24:32.990Z,1.97
2022-12-03T16:27:02.786Z,2.10
2022-12-03T16:29:32.530Z,2.07
2022-12-03T16:32:02.480Z,2.22
2022-12-03T16:34:32.530Z,2.02
2022-12-03T16:37:02.315Z,2.08
2022-12-03T16:39:33.741Z,2.10
2022-12-03T16:42:04.801Z,1.97
2022-12-03T16:44:36.150Z,1.97
2022-12-03T16:47:05.983Z,2.13
2022-12-03T16:49:36.078Z,2.30
2022-12-03T16:52:08.533Z,2.12
2022-12-03T16:54:38.426Z,1.92
2022-12-03T16:57:08.234Z,1.99
2022-12-03T16:59:38.356Z,1.88
2022-12-03T17:02:12.857Z,1.88
2022-12-03T17:04:42.747Z,1.79
2022-12-03T17:07:12.507Z,2.05
2022-12-03T17:09:42.351Z,2.30
2022-12-03T17:12:13.986Z,2.14
2022-12-03T17:14:43.724Z,1.98
2022-12-03T17:17:13.506Z,1.88
2022-12-03T17:19:43.259Z,1.84
2022-12-03T17:22:14.492Z,1.82
2022-12-03T17:24:45.405Z,1.89
2022-12-03T17:27:15.726Z,2.07
2022-12-03T17:29:45.468Z,2.19
2022-12-03T17:32:15.568Z,2.13
2022-12-03T17:34:45.626Z,1.95
2022-12-03T17:37:15.384Z,1.91
2022-12-03T17:39:45.429Z,2.31
2022-12-03T17:42:15.548Z,1.98
2022-12-03T17:44:45.288Z,1.98
2022-12-03T17:47:15.624Z,1.96
2022-12-03T17:49:45.371Z,1.91
2022-12-03T17:52:16.064Z,1.89
2022-12-03T17:55:10.036Z,1.73
2022-12-03T17:57:17.314Z,1.88
2022-12-03T17:59:47.374Z,1.86
2022-12-03T18:02:19.441Z,2.06
2022-12-03T18:04:49.429Z,2.05
2022-12-03T18:07:19.171Z,2.28
2022-12-03T18:09:48.920Z,1.91
2022-12-03T18:12:18.685Z,1.68
2022-12-03T18:14:48.724Z,1.80
2022-12-03T18:17:18.821Z,1.73
2022-12-03T18:19:48.639Z,1.70
2022-12-03T18:22:18.510Z,1.91
2022-12-03T18:24:51.924Z,1.88
2022-12-03T18:27:22.161Z,1.89
2022-12-03T18:29:52.294Z,1.95
2022-12-03T18:32:30.126Z,1.72
2022-12-03T18:34:54.134Z,1.96
2022-12-03T18:37:27.255Z,1.79
2022-12-03T18:39:58.593Z,1.82
2022-12-03T18:42:28.509Z,1.71
2022-12-03T18:44:58.432Z,1.88
2022-12-03T18:47:29.792Z,1.75
2022-12-03T18:49:59.758Z,1.75
2022-12-03T18:52:29.225Z,1.92
2022-12-03T18:54:59.305Z,1.80
2022-12-03T18:57:29.051Z,1.87
2022-12-03T18:59:58.925Z,1.95
2022-12-03T19:05:00.044Z,1.92
2022-12-03T19:07:29.814Z,1.69
2022-12-03T19:10:00.014Z,1.86
2022-12-03T19:12:29.834Z,1.79
2022-12-03T19:14:59.886Z,1.89
2022-12-03T19:17:29.794Z,1.87
2022-12-03T19:19:59.873Z,1.62
2022-12-03T19:22:30.035Z,1.89
2022-12-03T19:24:59.793Z,1.81
2022-12-03T19:27:31.702Z,1.92
2022-12-03T19:30:01.419Z,1.92
2022-12-03T19:32:30.963Z,1.63
2022-12-03T19:35:02.375Z,1.49
2022-12-03T19:37:35.250Z,1.46
2022-12-03T19:40:10.181Z,1.66
2022-12-03T19:42:40.788Z,1.59
2022-12-03T19:45:10.624Z,1.43
2022-12-03T19:47:40.442Z,1.62
2022-12-03T19:50:11.818Z,1.87
2022-12-03T19:52:41.578Z,1.83
2022-12-03T19:55:11.031Z,1.59
2022-12-03T19:57:41.062Z,1.58
2022-12-03T20:00:13.508Z,1.58
2022-12-03T20:02:43.503Z,1.46
2022-12-03T20:05:13.223Z,1.71
2022-12-03T20:07:43.047Z,1.62
2022-12-03T20:10:14.449Z,1.47
2022-12-03T20:12:44.273Z,1.45
2022-12-03T20:15:15.004Z,1.65
2022-12-03T20:17:44.516Z,1.50
2022-12-03T20:20:14.124Z,1.58
2022-12-03T20:22:43.907Z,1.38
2022-12-03T20:25:14.127Z,1.52
2022-12-03T20:27:43.889Z,1.69
2022-12-03T20:30:15.638Z,1.84
2022-12-03T20:32:45.780Z,1.49
2022-12-03T20:35:15.221Z,1.57
2022-12-03T20:37:44.657Z,1.45
2022-12-03T20:40:15.547Z,1.45
2022-12-03T20:42:49.623Z,1.72
2022-12-03T20:45:19.539Z,1.62
2022-12-03T20:47:49.284Z,1.42
2022-12-03T20:50:18.854Z,1.42
2022-12-03T20:53:09.702Z,1.65
2022-12-03T20:55:19.744Z,1.50
2022-12-03T20:57:50.253Z,1.51
2022-12-03T21:00:20.362Z,1.57
2022-12-03T21:02:50.207Z,1.67
2022-12-03T21:05:19.980Z,1.52
2022-12-03T21:07:51.771Z,1.76
2022-12-03T21:10:36.418Z,1.34
2022-12-03T21:13:06.464Z,1.40
2022-12-03T21:15:36.236Z,1.80
2022-12-03T21:18:06.100Z,1.32
2022-12-03T21:20:44.022Z,1.58
2022-12-03T21:23:14.501Z,1.34
2022-12-03T21:25:44.309Z,1.49
2022-12-03T21:28:14.076Z,1.29
2022-12-03T21:30:44.215Z,1.51
2022-12-03T21:33:14.310Z,1.55
2022-12-03T21:35:44.086Z,1.31
2022-12-03T21:38:14.593Z,1.19
2022-12-03T21:40:44.348Z,1.48
2022-12-03T21:43:14.122Z,1.56
2022-12-03T21:45:44.578Z,1.38
2022-12-03T21:48:14.840Z,1.56
2022-12-03T21:50:45.505Z,1.65
2022-12-03T21:53:15.540Z,1.70
2022-12-03T21:55:45.289Z,1.36
2022-12-03T21:58:16.721Z,1.45
2022-12-03T22:00:46.808Z,1.55
2022-12-03T22:03:16.659Z,1.45
2022-12-03T22:05:46.445Z,1.43
2022-12-03T22:08:17.353Z,1.39
2022-12-03T22:10:47.130Z,1.33
2022-12-03T22:13:16.890Z,1.33
2022-12-03T22:15:46.504Z,1.06
2022-12-03T22:18:16.585Z,1.33
2022-12-03T22:20:46.366Z,1.30
2022-12-03T22:23:16.200Z,1.32
2022-12-03T22:25:46.258Z,1.32
2022-12-03T22:28:16.942Z,1.60
2022-12-03T22:30:47.089Z,1.49
2022-12-03T22:33:16.921Z,1.65
2022-12-03T22:36:01.235Z,1.63
2022-12-03T22:38:32.431Z,1.53
2022-12-03T22:41:07.330Z,1.73
2022-12-03T22:43:37.568Z,1.51
2022-12-03T22:46:10.482Z,1.55
2022-12-03T22:48:41.740Z,1.39
2022-12-03T22:51:14.253Z,1.44
2022-12-03T22:53:44.081Z,1.59
2022-12-03T22:56:17.265Z,1.51
2022-12-03T22:58:47.098Z,1.72
2022-12-03T23:01:37.784Z,1.52
2022-12-03T23:04:09.117Z,1.40
2022-12-03T23:06:39.587Z,1.53
2022-12-03T23:09:09.362Z,1.58
2022-12-03T23:11:39.232Z,1.74
2022-12-03T23:14:11.083Z,1.61
2022-12-03T23:16:41.484Z,1.70
2022-12-03T23:19:11.552Z,1.50
2022-12-03T23:21:41.364Z,1.49
2022-12-03T23:24:13.609Z,1.59
2022-12-03T23:26:43.519Z,1.59
2022-12-03T23:29:13.586Z,1.41
2022-12-03T23:31:43.408Z,1.55
2022-12-03T23:34:14.468Z,1.38
2022-12-03T23:36:44.311Z,1.48
2022-12-03T23:39:14.377Z,1.60
2022-12-03T23:41:44.266Z,1.39
2022-12-03T23:44:15.929Z,1.43
2022-12-03T23:46:45.799Z,1.68
2022-12-03T23:49:15.899Z,1.46
2022-12-03T23:51:45.978Z,1.55
2022-12-03T23:54:15.702Z,1.54
2022-12-03T23:56:45.837Z,1.57
2022-12-03T23:59:15.879Z,1.60
